Time;durP1;ratioP1;P1;durP2;ratioP2;P2;SDS_P1;SDS_P2;PMS_P1;PMS_P2;Temp;Humidity;BMP_temperature;BMP_pressure;BME280_temperature;BME280_humidity;BME280_pressure;Samples;Min_cycle;Max_cycle;Signal;HPM_P1;HPM_P2
2023/05/24 00:00:11;;;;;;;15.13;5.10;;;;;;;8.18;100.00;101013.56;5026972;28;20568;-70
2023/05/24 00:02:40;;;;;;;15.50;4.50;;;;;;;8.18;100.00;101020.56;5028416;28;20671;-70
2023/05/24 00:05:09;;;;;;;9.47;4.70;;;;;;;8.20;100.00;101012.72;5018571;28;20202;-72
2023/05/24 00:07:36;;;;;;;7.73;4.20;;;;;;;8.17;100.00;101014.41;5025179;28;20270;-70
2023/05/24 00:10:06;;;;;;;9.33;4.50;;;;;;;8.24;100.00;101017.22;5028224;28;20290;-70
2023/05/24 00:12:35;;;;;;;9.03;4.70;;;;;;;8.20;100.00;101020.63;5025749;28;20223;-71
2023/05/24 00:15:01;;;;;;;10.10;4.27;;;;;;;8.20;100.00;101007.44;5023929;28;20275;-70
2023/05/24 00:17:29;;;;;;;9.87;4.53;;;;;;;8.20;100.00;101015.34;5027334;28;20192;-70
2023/05/24 00:19:55;;;;;;;7.93;4.53;;;;;;;8.18;100.00;101010.00;5028643;28;20577;-70
2023/05/24 00:22:22;;;;;;;11.00;4.07;;;;;;;8.12;100.00;101000.16;5027712;28;20218;-70
2023/05/24 00:24:48;;;;;;;6.80;4.03;;;;;;;8.10;100.00;100996.56;5026939;28;20315;-71
2023/05/24 00:27:15;;;;;;;10.03;4.30;;;;;;;8.25;100.00;101005.84;5031171;28;20713;-70
2023/05/24 00:29:41;;;;;;;10.73;4.17;;;;;;;8.36;100.00;101008.00;5032114;28;20198;-71
2023/05/24 00:32:07;;;;;;;9.00;4.47;;;;;;;8.39;100.00;101012.47;5029360;28;20195;-69
2023/05/24 00:34:34;;;;;;;12.30;4.67;;;;;;;8.26;100.00;101010.25;5030974;28;20266;-68
2023/05/24 00:37:00;;;;;;;10.30;4.10;;;;;;;8.13;100.00;101004.59;5026285;28;20575;-68
2023/05/24 00:39:27;;;;;;;10.83;4.10;;;;;;;8.11;100.00;101008.03;5031383;28;20213;-72
2023/05/24 00:41:53;;;;;;;9.00;4.10;;;;;;;8.10;100.00;101008.88;5029732;28;20195;-72
2023/05/24 00:44:20;;;;;;;12.57;4.87;;;;;;;8.09;100.00;101013.25;5030451;28;20215;-70
2023/05/24 00:46:46;;;;;;;8.87;3.63;;;;;;;7.99;100.00;101011.13;5028686;28;20220;-70
2023/05/24 00:49:12;;;;;;;8.83;4.33;;;;;;;7.97;100.00;101017.19;5032483;28;20278;-70
2023/05/24 00:51:39;;;;;;;12.07;4.47;;;;;;;7.88;100.00;101022.16;5024559;28;20198;-70
2023/05/24 00:54:06;;;;;;;12.30;4.30;;;;;;;7.91;100.00;101027.53;5028291;28;20257;-73
2023/05/24 00:56:32;;;;;;;9.87;4.07;;;;;;;7.81;100.00;101016.69;5013582;28;20199;-70
2023/05/24 00:58:59;;;;;;;8.37;3.97;;;;;;;7.81;100.00;101026.34;5030652;28;20208;-70
2023/05/24 01:01:29;;;;;;;12.40;4.50;;;;;;;7.77;100.00;101020.06;5029588;28;20208;-66
2023/05/24 01:03:56;;;;;;;13.77;4.87;;;;;;;7.80;100.00;101016.63;5025031;28;20304;-71
2023/05/24 01:06:25;;;;;;;9.73;4.07;;;;;;;8.00;100.00;101031.38;5026704;28;20227;-70
2023/05/24 01:09:18;;;;;;;10.73;4.27;;;;;;;8.07;100.00;101033.41;5028159;28;20199;-68
2023/05/24 01:12:06;;;;;;;11.40;4.20;;;;;;;8.14;100.00;101030.13;4989433;28;20196;-71
2023/05/24 01:14:52;;;;;;;19.60;5.83;;;;;;;8.16;100.00;101032.81;5031537;28;20226;-69
2023/05/24 01:17:23;;;;;;;10.20;3.63;;;;;;;8.23;100.00;101036.53;5019318;28;20593;-69
2023/05/24 01:20:05;;;;;;;8.50;3.80;;;;;;;8.12;100.00;101031.81;5023460;28;20641;-70
2023/05/24 01:23:13;;;;;;;13.43;4.00;;;;;;;8.16;100.00;101032.81;5027074;28;20199;-69
2023/05/24 01:26:17;;;;;;;15.53;3.80;;;;;;;8.13;100.00;101023.06;5003362;28;20188;-70
2023/05/24 01:28:46;;;;;;;10.13;3.87;;;;;;;8.08;100.00;101015.84;5008781;28;20192;-72
2023/05/24 01:31:14;;;;;;;11.17;3.90;;;;;;;8.06;100.00;101015.78;5030182;28;20192;-71
2023/05/24 01:33:42;;;;;;;11.23;4.13;;;;;;;8.08;100.00;101018.47;5021530;28;20267;-72
2023/05/24 01:36:09;;;;;;;8.07;4.03;;;;;;;8.02;100.00;101019.19;5026983;28;20194;-71
2023/05/24 01:38:37;;;;;;;9.60;3.67;;;;;;;8.11;100.00;101008.03;5024756;28;20206;-69
2023/05/24 01:41:31;;;;;;;10.23;3.60;;;;;;;8.04;100.00;101014.84;5028945;28;20795;-70
2023/05/24 01:44:02;;;;;;;12.67;4.07;;;;;;;7.92;100.00;101009.13;5025813;28;21173;-67
2023/05/24 01:46:38;;;;;;;10.87;3.60;;;;;;;7.91;100.00;101007.34;5024240;28;20222;-70
2023/05/24 01:49:16;;;;;;;10.23;3.47;;;;;;;7.86;100.00;101012.47;5023571;28;20204;-71
2023/05/24 01:51:53;;;;;;;9.30;3.77;;;;;;;7.88;100.00;101020.44;5025168;28;20202;-70
2023/05/24 01:54:23;;;;;;;11.03;4.13;;;;;;;7.82;100.00;101009.66;5024585;28;20309;-71
2023/05/24 01:56:52;;;;;;;9.83;3.73;;;;;;;7.86;100.00;101023.00;5000501;28;20195;-70
2023/05/24 01:59:21;;;;;;;8.60;3.67;;;;;;;7.78;100.00;101013.06;5030343;28;20210;-67
2023/05/24 02:01:48;;;;;;;8.33;3.73;;;;;;;7.85;100.00;101015.06;5026352;28;20482;-69
2023/05/24 02:04:15;;;;;;;7.27;4.10;;;;;;;7.72;100.00;101019.00;5021421;28;20253;-69
2023/05/24 02:06:42;;;;;;;13.23;4.10;;;;;;;7.64;100.00;101014.31;5026394;28;20299;-72
2023/05/24 02:09:08;;;;;;;14.03;4.33;;;;;;;7.38;100.00;101019.56;5026236;28;20217;-71
2023/05/24 02:11:34;;;;;;;11.77;4.07;;;;;;;7.30;100.00;101022.75;5021451;28;20284;-70
2023/05/24 02:14:01;;;;;;;9.13;3.90;;;;;;;7.34;100.00;101024.66;5030594;28;20241;-69
2023/05/24 02:16:29;;;;;;;8.90;4.33;;;;;;;7.22;100.00;101020.75;5025796;28;20199;-69
2023/05/24 02:18:56;;;;;;;9.57;3.90;;;;;;;7.20;100.00;101026.75;5029964;28;20199;-69
2023/05/24 02:21:24;;;;;;;9.03;3.80;;;;;;;7.15;100.00;101015.16;5028230;28;20663;-70
2023/05/24 02:23:50;;;;;;;11.30;3.80;;;;;;;7.14;100.00;101026.53;5030340;28;20340;-69
2023/05/24 02:26:17;;;;;;;11.83;3.63;;;;;;;7.08;100.00;101036.84;5023482;28;20294;-73
2023/05/24 02:28:43;;;;;;;9.77;3.60;;;;;;;7.03;100.00;101035.78;5020499;28;20198;-70
2023/05/24 02:31:10;;;;;;;12.03;4.07;;;;;;;6.99;100.00;101037.41;5027647;28;20206;-69
2023/05/24 02:33:36;;;;;;;14.83;4.20;;;;;;;6.93;100.00;101026.66;5023469;28;20306;-69
2023/05/24 02:36:03;;;;;;;5.03;3.30;;;;;;;6.78;100.00;101024.31;5025994;28;20216;-71
2023/05/24 02:38:30;;;;;;;7.60;3.20;;;;;;;6.77;100.00;101038.28;5020506;28;20616;-70
2023/05/24 02:40:57;;;;;;;8.83;3.63;;;;;;;6.70;100.00;101028.38;5018594;28;20214;-71
2023/05/24 02:43:23;;;;;;;13.70;4.20;;;;;;;6.65;100.00;101029.94;5029638;28;20227;-70
2023/05/24 02:45:50;;;;;;;8.87;4.10;;;;;;;6.69;100.00;101028.31;5028179;28;20294;-71
2023/05/24 02:48:16;;;;;;;10.97;3.67;;;;;;;6.59;100.00;101024.44;5024762;28;20269;-69
2023/05/24 02:50:43;;;;;;;12.20;3.97;;;;;;;6.53;100.00;101033.00;5025932;28;20748;-69
2023/05/24 02:53:10;;;;;;;7.00;3.77;;;;;;;6.71;100.00;101031.91;5020349;28;20234;-71
2023/05/24 02:55:36;;;;;;;9.63;3.80;;;;;;;6.67;100.00;101033.53;5022537;28;20206;-69
2023/05/24 02:58:03;;;;;;;11.53;3.70;;;;;;;6.80;100.00;101019.09;5023430;28;20284;-70
2023/05/24 03:00:29;;;;;;;6.93;3.70;;;;;;;6.98;100.00;101027.72;5020513;28;20303;-70
2023/05/24 03:02:59;;;;;;;8.50;3.47;;;;;;;7.12;100.00;101026.47;5018857;28;20280;-69
2023/05/24 03:05:26;;;;;;;12.30;4.00;;;;;;;7.22;100.00;101020.75;5021392;28;20222;-70
2023/05/24 03:07:52;;;;;;;8.37;3.53;;;;;;;7.33;100.00;101025.50;5028076;28;20708;-69
2023/05/24 03:10:18;;;;;;;13.83;4.07;;;;;;;7.46;100.00;101027.72;5021946;28;20288;-69
2023/05/24 03:12:45;;;;;;;8.27;3.50;;;;;;;7.72;100.00;101026.03;5028557;28;20681;-71
2023/05/24 03:15:14;;;;;;;8.20;3.27;;;;;;;7.78;100.00;101015.69;5029165;28;20293;-70
2023/05/24 03:17:40;;;;;;;8.87;3.57;;;;;;;7.78;100.00;101018.31;5029174;28;20201;-71
2023/05/24 03:20:07;;;;;;;7.07;3.40;;;;;;;7.76;100.00;101012.09;5023333;28;20222;-69
2023/05/24 03:22:33;;;;;;;10.13;3.50;;;;;;;7.83;100.00;101017.63;5005920;28;20202;-74
2023/05/24 03:25:00;;;;;;;7.60;3.17;;;;;;;7.86;100.00;101019.47;5012348;28;20204;-70
2023/05/24 03:27:26;;;;;;;10.00;3.37;;;;;;;7.80;100.00;101014.91;5018531;28;20302;-70
2023/05/24 03:29:53;;;;;;;9.73;3.40;;;;;;;7.77;100.00;101017.44;5026560;28;20666;-69
2023/05/24 03:32:19;;;;;;;8.67;3.53;;;;;;;7.82;100.00;101015.84;5029790;28;20619;-69
2023/05/24 03:34:46;;;;;;;9.07;3.23;;;;;;;7.84;100.00;101015.91;5021246;28;20638;-71
2023/05/24 03:37:12;;;;;;;10.03;3.03;;;;;;;7.88;100.00;101020.44;5021781;28;20347;-70
2023/05/24 03:39:39;;;;;;;9.40;3.17;;;;;;;7.86;100.00;101024.75;5027624;28;20690;-71
2023/05/24 03:42:05;;;;;;;8.20;2.97;;;;;;;7.91;100.00;101020.53;5022120;28;20199;-69
2023/05/24 03:44:31;;;;;;;8.30;3.43;;;;;;;7.97;100.00;101015.47;5029190;28;20238;-69
2023/05/24 03:46:58;;;;;;;9.97;3.23;;;;;;;7.94;100.00;101018.00;5029502;28;20206;-69
2023/05/24 03:49:24;;;;;;;7.87;3.27;;;;;;;7.85;100.00;101018.59;5021696;28;20223;-69
2023/05/24 03:51:51;;;;;;;8.63;2.97;;;;;;;7.92;100.00;101021.44;5027672;28;20204;-69
2023/05/24 03:54:17;;;;;;;12.33;3.43;;;;;;;7.90;100.00;101024.00;5020373;28;20237;-72
2023/05/24 03:56:43;;;;;;;6.53;3.30;;;;;;;7.96;100.00;101031.22;5022655;28;20195;-69
2023/05/24 03:59:10;;;;;;;13.60;3.57;;;;;;;7.96;100.00;101032.13;5021005;28;20205;-69
2023/05/24 04:01:36;;;;;;;11.53;3.80;;;;;;;7.91;100.00;101030.19;5021917;28;20199;-69
2023/05/24 04:04:03;;;;;;;9.10;3.30;;;;;;;7.80;100.00;101028.09;5021525;28;20312;-69
2023/05/24 04:06:29;;;;;;;10.93;3.57;;;;;;;7.81;100.00;101032.50;5016533;28;20238;-69
2023/05/24 04:08:58;;;;;;;16.90;3.53;;;;;;;7.81;100.00;101032.50;5020322;28;20213;-69
2023/05/24 04:11:27;;;;;;;7.97;3.10;;;;;;;7.80;100.00;101028.09;5024266;28;20199;-69
2023/05/24 04:13:54;;;;;;;11.10;3.57;;;;;;;7.81;100.00;101027.22;5025789;28;20217;-69
2023/05/24 04:16:26;;;;;;;11.67;3.30;;;;;;;7.82;100.00;101039.56;5017760;28;20570;-69
2023/05/24 04:18:54;;;;;;;12.63;3.10;;;;;;;7.72;100.00;101021.66;5028869;28;20215;-72
2023/05/24 04:21:21;;;;;;;9.90;3.40;;;;;;;7.75;100.00;101029.66;5018493;28;20233;-72
2023/05/24 04:23:47;;;;;;;9.17;2.80;;;;;;;7.76;100.00;101022.66;5022475;28;20259;-69
2023/05/24 04:26:14;;;;;;;7.60;2.90;;;;;;;7.78;100.00;101021.84;5025643;28;20244;-69
2023/05/24 04:28:41;;;;;;;11.47;3.53;;;;;;;7.79;100.00;101022.75;5005203;28;20265;-69
2023/05/24 04:31:08;;;;;;;14.97;3.10;;;;;;;7.89;99.94;101024.84;5019043;28;20201;-71
2023/05/24 04:33:35;;;;;;;11.43;3.17;;;;;;;7.97;99.03;101041.84;5019337;28;20219;-70
2023/05/24 04:36:02;;;;;;;10.90;2.87;;;;;;;8.06;98.46;101044.81;5022591;28;20283;-69
2023/05/24 04:38:31;;;;;;;9.13;3.50;;;;;;;8.10;98.49;101046.69;5022976;28;20360;-69
2023/05/24 04:41:00;;;;;;;12.50;3.23;;;;;;;8.11;98.22;101045.84;5019639;28;20210;-69
2023/05/24 04:43:27;;;;;;;8.40;2.90;;;;;;;8.09;98.00;101036.09;5020789;28;20229;-69
2023/05/24 04:45:54;;;;;;;13.97;3.30;;;;;;;8.13;97.23;101041.53;5026727;28;20311;-70
2023/05/24 04:48:23;;;;;;;10.43;3.10;;;;;;;8.23;96.72;101053.28;5019515;28;20231;-69
2023/05/24 04:50:53;;;;;;;4.93;2.47;;;;;;;8.26;97.39;101065.69;5024178;28;20196;-70
2023/05/24 04:53:20;;;;;;;13.33;3.10;;;;;;;8.31;96.38;101062.34;5048205;23;20224;-69
2023/05/24 04:55:48;;;;;;;9.13;2.50;;;;;;;8.34;96.24;101066.84;5046523;28;20652;-70
2023/05/24 04:58:15;;;;;;;12.07;2.93;;;;;;;8.41;95.71;101064.50;5046618;28;20195;-70
2023/05/24 05:00:42;;;;;;;7.40;2.83;;;;;;;8.48;94.60;101065.59;5055072;28;20733;-70
2023/05/24 05:03:10;;;;;;;10.40;3.83;;;;;;;8.57;93.72;101064.97;5032599;28;20201;-70
2023/05/24 05:05:36;;;;;;;7.17;3.33;;;;;;;8.61;93.66;101069.50;5043688;28;20247;-70
2023/05/24 05:08:03;;;;;;;6.77;2.90;;;;;;;8.65;93.38;101072.28;5057451;28;20597;-70
2023/05/24 05:10:29;;;;;;;10.93;3.03;;;;;;;8.71;93.42;101069.84;5048024;28;20639;-70
2023/05/24 05:12:56;;;;;;;8.43;3.07;;;;;;;8.80;92.83;101061.31;5068254;28;20204;-71
2023/05/24 05:15:23;;;;;;;6.50;2.80;;;;;;;8.76;92.88;101051.50;5057431;28;20207;-70
2023/05/24 05:17:49;;;;;;;9.77;2.67;;;;;;;8.78;90.84;101057.72;5062739;28;20308;-67
2023/05/24 05:20:16;;;;;;;9.03;2.80;;;;;;;8.81;90.40;101056.94;5066750;28;20196;-68
2023/05/24 05:22:46;;;;;;;9.77;2.77;;;;;;;8.86;91.26;101056.25;5051162;28;20264;-68
2023/05/24 05:25:13;;;;;;;10.10;2.97;;;;;;;8.92;89.54;101059.06;5064319;28;20214;-68
2023/05/24 05:27:39;;;;;;;12.77;2.90;;;;;;;8.99;88.90;101054.84;5068931;28;20211;-69
2023/05/24 05:30:07;;;;;;;6.73;2.60;;;;;;;9.02;89.10;101065.53;5065616;28;20220;-70
2023/05/24 05:32:34;;;;;;;11.70;2.63;;;;;;;9.07;88.27;101080.66;5061647;28;20680;-68
2023/05/24 05:35:01;;;;;;;9.33;2.60;;;;;;;9.19;87.42;101080.13;5066750;28;20728;-68
2023/05/24 05:37:28;;;;;;;11.17;2.70;;;;;;;9.25;86.78;101085.63;5069531;28;20243;-70
2023/05/24 05:39:55;;;;;;;11.83;2.73;;;;;;;9.42;85.57;101088.75;5064856;28;20336;-68
2023/05/24 05:42:23;;;;;;;7.87;2.70;;;;;;;9.67;84.31;101087.72;5058446;28;20615;-68
2023/05/24 05:44:51;;;;;;;9.67;3.13;;;;;;;9.73;82.64;101093.16;5062852;28;20218;-69
2023/05/24 05:47:17;;;;;;;6.23;2.47;;;;;;;9.72;83.09;101094.91;5063544;28;20206;-69
2023/05/24 05:49:43;;;;;;;7.03;2.50;;;;;;;9.85;82.31;101097.91;5063992;28;20203;-69
2023/05/24 05:52:10;;;;;;;8.60;2.40;;;;;;;10.02;81.67;101086.03;5038392;28;20680;-69
2023/05/24 05:54:37;;;;;;;9.23;2.90;;;;;;;10.24;80.02;101092.81;5056609;28;20226;-68
2023/05/24 05:57:04;;;;;;;10.60;2.57;;;;;;;10.28;79.05;101086.72;5060937;28;20204;-68
2023/05/24 05:59:31;;;;;;;6.63;3.03;;;;;;;10.17;79.04;101096.13;5067732;28;20205;-69
2023/05/24 06:01:58;;;;;;;9.70;2.50;;;;;;;10.07;79.72;101087.06;5043639;28;20203;-69
2023/05/24 06:04:24;;;;;;;9.60;2.50;;;;;;;10.04;78.86;101084.31;5049532;28;20214;-68
2023/05/24 06:06:51;;;;;;;5.43;2.23;;;;;;;10.09;77.20;101090.63;5069631;28;20198;-68
2023/05/24 06:09:17;;;;;;;9.67;2.80;;;;;;;10.10;77.50;101086.22;5060327;28;20371;-68
2023/05/24 06:11:44;;;;;;;7.80;2.30;;;;;;;10.13;77.43;101091.59;5062394;28;20201;-69
2023/05/24 06:14:12;;;;;;;6.20;2.40;;;;;;;10.20;75.85;101094.47;5064117;28;20311;-68
2023/05/24 06:16:40;;;;;;;6.40;3.07;;;;;;;10.26;75.49;101102.56;5065614;28;20203;-69
2023/05/24 06:19:07;;;;;;;11.03;2.63;;;;;;;10.37;74.36;101105.50;5060851;28;20194;-69
2023/05/24 06:21:35;;;;;;;8.80;2.70;;;;;;;10.51;74.91;101108.50;5070016;28;20360;-68
2023/05/24 06:24:03;;;;;;;11.03;3.47;;;;;;;10.64;74.05;101113.25;5062519;28;20732;-67
2023/05/24 06:26:29;;;;;;;11.33;2.83;;;;;;;10.62;73.70;101118.50;5063356;28;20294;-68
2023/05/24 06:28:56;;;;;;;10.37;2.60;;;;;;;10.57;74.29;101119.25;5066054;28;20233;-69
2023/05/24 06:31:22;;;;;;;10.17;2.57;;;;;;;10.50;72.79;101118.22;5067325;28;20206;-70
2023/05/24 06:33:49;;;;;;;10.27;3.17;;;;;;;10.43;73.20;101121.56;5063688;28;20335;-68
2023/05/24 06:36:29;;;;;;;11.00;2.73;;;;;;;10.45;74.00;101117.22;5062092;28;20198;-68
2023/05/24 06:38:56;;;;;;;12.40;2.37;;;;;;;10.57;73.42;101122.81;5065093;28;20282;-70
2023/05/24 06:41:22;;;;;;;9.40;2.53;;;;;;;10.62;71.78;101117.63;5049425;28;20289;-69
2023/05/24 06:43:48;;;;;;;8.67;2.60;;;;;;;10.67;71.03;101115.97;5068380;28;20713;-69
2023/05/24 06:46:15;;;;;;;11.33;2.60;;;;;;;10.67;69.43;101123.91;5064631;28;20591;-68
2023/05/24 06:48:41;;;;;;;8.90;2.53;;;;;;;10.80;70.79;101122.44;5069424;28;20225;-68
2023/05/24 06:51:08;;;;;;;10.87;2.67;;;;;;;10.85;69.33;101128.78;5064858;28;20206;-70
2023/05/24 06:53:35;;;;;;;7.70;2.10;;;;;;;11.04;68.26;101133.66;5067283;28;20233;-70
2023/05/24 06:56:01;;;;;;;8.93;2.50;;;;;;;11.26;67.22;101122.69;5048402;28;20197;-69
2023/05/24 06:58:27;;;;;;;6.53;2.23;;;;;;;11.30;67.19;101119.25;5063572;28;20191;-69
2023/05/24 07:00:54;;;;;;;7.53;2.27;;;;;;;12.02;64.64;101102.19;5059470;28;20200;-69
2023/05/24 07:03:20;;;;;;;11.27;2.80;;;;;;;13.58;59.36;101099.34;5058818;28;20221;-69
2023/05/24 07:05:47;;;;;;;5.67;2.20;;;;;;;14.99;49.37;101098.09;5066548;28;20201;-69
2023/05/24 07:08:13;;;;;;;7.47;2.30;;;;;;;16.06;45.12;101101.31;5067287;28;20217;-70
2023/05/24 07:10:40;;;;;;;5.77;2.00;;;;;;;17.08;42.26;101096.00;5066462;28;20212;-69
2023/05/24 07:13:08;;;;;;;11.87;2.63;;;;;;;18.14;39.74;101100.06;5064223;28;20696;-69
2023/05/24 07:15:34;;;;;;;8.67;2.27;;;;;;;19.07;37.56;101098.47;5067152;28;20274;-69
2023/05/24 07:18:01;;;;;;;5.90;2.00;;;;;;;19.78;36.54;101095.88;5065176;28;20198;-69
2023/05/24 07:20:27;;;;;;;7.30;2.83;;;;;;;20.05;35.78;101103.59;5064716;28;20238;-69
2023/05/24 07:22:54;;;;;;;6.50;2.60;;;;;;;19.62;36.03;101097.91;5063506;28;20667;-71
2023/05/24 07:25:21;;;;;;;9.90;2.40;;;;;;;20.50;34.43;101096.66;5060451;28;20746;-75
2023/05/24 07:27:48;;;;;;;5.93;1.80;;;;;;;20.33;33.30;101093.28;5049453;28;20228;-76
2023/05/24 07:30:14;;;;;;;6.03;2.20;;;;;;;20.49;33.21;101099.38;5057925;28;20209;-79
2023/05/24 07:32:56;;;;;;;9.20;2.63;;;;;;;21.17;33.11;101102.66;5059032;28;20289;-77
2023/05/24 07:35:23;;;;;;;9.33;2.53;;;;;;;20.65;33.24;101092.81;5065520;28;20622;-80
2023/05/24 07:37:49;;;;;;;5.60;2.03;;;;;;;21.11;32.36;101103.66;5058575;28;20206;-76
2023/05/24 07:40:16;;;;;;;7.60;2.03;;;;;;;21.45;32.13;101103.94;5067550;28;20202;-73
2023/05/24 07:42:42;;;;;;;6.60;2.23;;;;;;;21.81;31.36;101105.00;5062145;28;20214;-72
2023/05/24 07:45:09;;;;;;;8.20;2.37;;;;;;;21.10;31.57;101123.44;5057037;28;20758;-71
2023/05/24 07:47:36;;;;;;;7.03;2.23;;;;;;;20.62;33.28;101109.03;5065859;28;20195;-71
2023/05/24 07:50:03;;;;;;;4.53;1.80;;;;;;;20.38;32.82;101129.09;5061324;28;20261;-72
2023/05/24 07:52:30;;;;;;;5.37;2.20;;;;;;;20.00;33.16;101119.75;5062897;28;20598;-71
2023/05/24 07:54:57;;;;;;;7.43;2.23;;;;;;;20.23;33.54;101126.63;5056173;28;20647;-71
2023/05/24 07:57:23;;;;;;;8.33;2.13;;;;;;;19.82;35.50;101121.81;5066067;28;20198;-72
2023/05/24 07:59:50;;;;;;;6.47;1.93;;;;;;;19.80;35.65;101119.16;5067411;28;20196;-71
2023/05/24 08:02:16;;;;;;;6.47;2.20;;;;;;;18.76;38.44;101124.69;5062682;28;20198;-71
2023/05/24 08:04:42;;;;;;;7.37;2.53;;;;;;;19.03;37.30;101128.94;5055390;28;20261;-72
2023/05/24 08:07:09;;;;;;;8.90;3.20;;;;;;;18.51;38.13;101134.69;5060266;28;20650;-72
2023/05/24 08:09:37;;;;;;;7.77;2.20;;;;;;;18.93;38.22;101136.19;5064379;28;20222;-69
2023/05/24 08:12:05;;;;;;;6.80;2.50;;;;;;;19.54;36.44;101123.94;5060481;28;20198;-69
2023/05/24 08:14:31;;;;;;;9.40;2.33;;;;;;;20.14;35.17;101116.91;5062938;28;20733;-72
2023/05/24 08:17:01;;;;;;;6.30;2.27;;;;;;;19.94;35.41;101108.19;5065780;28;20202;-70
2023/05/24 08:19:27;;;;;;;7.10;1.80;;;;;;;18.91;36.96;101119.19;5061044;28;20198;-69
2023/05/24 08:21:56;;;;;;;6.47;1.90;;;;;;;16.67;43.52;101113.88;5039522;28;20198;-72
2023/05/24 08:24:22;;;;;;;9.83;2.57;;;;;;;15.80;46.95;101124.34;5058661;28;20231;-69
2023/05/24 08:26:51;;;;;;;9.97;2.40;;;;;;;15.17;48.95;101128.44;5063031;28;20190;-70
2023/05/24 08:29:17;;;;;;;5.37;2.10;;;;;;;15.05;49.91;101124.81;5063308;28;20205;-70
2023/05/24 08:31:44;;;;;;;7.63;2.27;;;;;;;14.35;51.08;101120.63;5060520;28;20221;-73
2023/05/24 08:34:11;;;;;;;8.27;2.33;;;;;;;14.00;52.34;101130.91;5061902;28;20221;-73
2023/05/24 08:36:39;;;;;;;8.20;2.43;;;;;;;13.88;53.36;101134.31;5064541;28;20263;-77
2023/05/24 08:39:05;;;;;;;9.33;2.27;;;;;;;13.92;52.07;101136.13;5063245;28;20202;-79
2023/05/24 08:41:36;;;;;;;8.03;2.67;;;;;;;13.82;53.75;101134.25;5064839;28;20211;-80
2023/05/24 08:44:05;;;;;;;9.53;2.40;;;;;;;13.64;53.08;101137.59;5064346;28;20645;-80
2023/05/24 08:46:33;;;;;;;6.90;2.10;;;;;;;13.20;53.59;101136.94;5062765;28;20223;-79
2023/05/24 08:49:02;;;;;;;7.43;2.20;;;;;;;13.11;53.65;101145.66;5065883;28;20328;-73
2023/05/24 08:51:29;;;;;;;10.57;2.60;;;;;;;13.20;53.82;101144.03;5071461;28;20692;-73
2023/05/24 08:53:57;;;;;;;7.40;2.20;;;;;;;13.45;53.64;101140.88;5065278;28;20283;-72
2023/05/24 08:56:27;;;;;;;8.80;2.47;;;;;;;13.55;53.29;101145.44;5064786;28;20251;-74
2023/05/24 08:58:54;;;;;;;8.67;2.30;;;;;;;13.29;53.12;101137.09;5067650;28;20221;-73
2023/05/24 09:01:25;;;;;;;9.30;2.30;;;;;;;13.46;53.28;101140.88;5071450;28;20444;-73
2023/05/24 09:03:56;;;;;;;8.80;2.33;;;;;;;13.48;53.20;101138.25;5065408;28;20220;-74
2023/05/24 09:06:24;;;;;;;9.20;2.53;;;;;;;13.61;54.07;101133.97;5063154;28;20201;-73
2023/05/24 09:08:52;;;;;;;5.37;2.77;;;;;;;13.76;52.22;101136.84;5066362;28;20211;-77
2023/05/24 09:11:21;;;;;;;8.50;2.33;;;;;;;13.44;53.47;101139.97;5068400;28;20642;-76
2023/05/24 09:13:48;;;;;;;7.13;2.30;;;;;;;13.47;53.20;101136.47;5069971;28;20219;-77
2023/05/24 09:16:15;;;;;;;7.90;2.50;;;;;;;13.65;51.77;101147.38;5065669;28;20197;-80
2023/05/24 09:18:42;;;;;;;7.97;2.33;;;;;;;13.09;53.20;101146.50;5062307;28;20273;-76
2023/05/24 09:21:10;;;;;;;10.53;2.37;;;;;;;12.96;53.98;101140.13;5063981;28;20214;-72
2023/05/24 09:23:37;;;;;;;7.07;2.30;;;;;;;12.94;52.14;101139.19;5063588;28;20241;-71
2023/05/24 09:26:08;;;;;;;7.47;2.50;;;;;;;13.01;50.12;101149.06;5057989;28;20199;-71
2023/05/24 09:28:35;;;;;;;7.30;2.50;;;;;;;13.22;51.05;101132.59;5061235;28;20219;-71
2023/05/24 09:31:03;;;;;;;5.60;2.43;;;;;;;13.48;49.76;101144.47;5062909;28;20196;-72
2023/05/24 09:33:34;;;;;;;8.33;2.43;;;;;;;13.74;50.84;101127.94;5064830;28;20581;-72
2023/05/24 09:36:03;;;;;;;10.03;2.80;;;;;;;13.98;50.37;101132.66;5064144;28;20208;-76
2023/05/24 09:38:30;;;;;;;9.00;2.57;;;;;;;14.47;49.92;101131.44;5062539;28;20201;-80
2023/05/24 09:41:03;;;;;;;8.73;2.80;;;;;;;14.66;47.73;101125.38;5059736;28;20203;-80
2023/05/24 09:43:31;;;;;;;8.47;2.63;;;;;;;15.24;49.53;101131.19;5069960;28;20298;-75
2023/05/24 09:45:59;;;;;;;6.20;2.50;;;;;;;15.76;46.04;101127.91;5066698;28;20696;-73
2023/05/24 09:48:25;;;;;;;9.53;3.10;;;;;;;16.30;44.70;101105.78;5061679;28;20208;-71
2023/05/24 09:51:03;;;;;;;8.53;2.60;;;;;;;16.26;44.14;101106.66;5059391;28;20286;-71
2023/05/24 09:53:32;;;;;;;8.77;2.80;;;;;;;16.35;44.34;101111.13;5066162;28;20226;-72
2023/05/24 09:56:00;;;;;;;7.93;2.60;;;;;;;16.33;44.42;101094.19;5065459;28;20248;-72
2023/05/24 09:58:33;;;;;;;8.67;2.77;;;;;;;16.45;44.19;101094.22;5058424;28;20639;-72
2023/05/24 10:01:05;;;;;;;9.73;3.03;;;;;;;16.40;43.38;101098.66;5062338;28;20202;-71
2023/05/24 10:03:32;;;;;;;7.00;2.87;;;;;;;15.21;46.42;101091.13;5061580;28;20242;-72
2023/05/24 10:06:00;;;;;;;12.50;3.43;;;;;;;14.98;47.70;101098.09;5070122;28;20198;-72
2023/05/24 10:08:27;;;;;;;8.67;2.67;;;;;;;14.75;48.34;101095.22;5043128;28;20194;-72
2023/05/24 10:10:55;;;;;;;8.07;2.80;;;;;;;14.62;49.68;101080.94;5062235;28;20221;-72
2023/05/24 10:13:22;;;;;;;8.77;2.87;;;;;;;15.02;48.33;101087.44;5068795;28;20214;-72
2023/05/24 10:15:49;;;;;;;9.40;3.17;;;;;;;14.80;48.63;101103.25;5066014;28;20191;-72
2023/05/24 10:18:15;;;;;;;5.13;2.57;;;;;;;15.29;45.79;101097.41;5057808;28;20289;-73
2023/05/24 10:20:42;;;;;;;7.77;3.00;;;;;;;15.86;44.36;101111.03;5068314;28;20277;-72
2023/05/24 10:23:18;;;;;;;8.37;2.97;;;;;;;16.51;42.98;101100.47;5062190;28;20198;-71
2023/05/24 10:25:55;;;;;;;10.00;3.13;;;;;;;17.25;41.17;101090.63;5059868;28;20198;-71
2023/05/24 10:28:23;;;;;;;7.63;2.60;;;;;;;17.82;40.72;101086.84;5062687;28;20199;-71
2023/05/24 10:31:04;;;;;;;8.57;2.70;;;;;;;17.25;39.91;101106.69;5054260;28;20215;-70
2023/05/24 10:33:34;;;;;;;5.77;2.50;;;;;;;16.95;41.17;101104.94;5063219;28;20249;-71
2023/05/24 10:36:03;;;;;;;10.03;3.17;;;;;;;16.53;41.82;101106.72;5062881;28;20244;-70
2023/05/24 10:38:33;;;;;;;10.67;2.73;;;;;;;16.94;40.33;101105.84;5062876;28;20230;-71
2023/05/24 10:41:00;;;;;;;5.60;2.47;;;;;;;17.44;40.07;101091.44;5070843;28;20198;-70
2023/05/24 10:43:27;;;;;;;8.87;3.20;;;;;;;17.45;40.43;101086.09;5068594;28;20287;-69
2023/05/24 10:45:55;;;;;;;8.57;2.73;;;;;;;17.07;40.42;101098.69;5056932;28;20277;-71
2023/05/24 10:48:27;;;;;;;6.43;2.57;;;;;;;16.60;40.96;101095.13;5059236;28;20643;-70
2023/05/24 10:50:54;;;;;;;5.50;2.77;;;;;;;16.03;41.48;101087.94;5065579;28;20218;-69
2023/05/24 10:53:24;;;;;;;7.87;2.47;;;;;;;16.46;42.09;101078.19;5062989;28;20739;-70
2023/05/24 10:55:58;;;;;;;7.93;2.70;;;;;;;17.21;39.48;101075.44;5056442;28;20968;-68
2023/05/24 10:58:56;;;;;;;8.10;2.80;;;;;;;17.31;38.92;101063.81;5061185;28;20243;-70
2023/05/24 11:01:27;;;;;;;7.40;2.60;;;;;;;17.78;38.13;101065.44;5066191;28;20668;-70
2023/05/24 11:04:10;;;;;;;6.27;2.50;;;;;;;17.66;38.84;101066.38;5062712;28;20218;-70
2023/05/24 11:06:48;;;;;;;7.80;2.57;;;;;;;17.42;39.09;101074.50;5064905;28;20194;-70
2023/05/24 11:09:16;;;;;;;7.00;3.13;;;;;;;17.25;40.33;101071.00;5065958;28;20246;-70
2023/05/24 11:11:45;;;;;;;9.13;2.83;;;;;;;16.91;40.05;101065.72;5045365;28;20197;-69
2023/05/24 11:14:12;;;;;;;6.10;2.70;;;;;;;16.60;39.85;101070.16;5065562;28;20246;-71
2023/05/24 11:16:39;;;;;;;7.73;3.07;;;;;;;16.52;39.36;101067.50;5067576;28;20201;-72
2023/05/24 11:19:17;;;;;;;7.37;3.20;;;;;;;16.89;39.33;101068.41;5052178;28;20285;-70
2023/05/24 11:21:45;;;;;;;7.13;3.10;;;;;;;17.43;37.38;101062.88;5063367;28;20231;-73
2023/05/24 11:24:12;;;;;;;7.80;2.80;;;;;;;17.36;37.64;101055.78;5065321;28;20214;-70
2023/05/24 11:26:39;;;;;;;7.60;3.13;;;;;;;17.42;38.41;101074.50;5066909;28;20650;-70
2023/05/24 11:29:06;;;;;;;7.67;3.37;;;;;;;17.29;39.20;101070.97;5055875;28;20721;-70